METAR Data
IDs: Format: Raw Decoded Include TAF

Data at: 0320 UTC 10 Dec 2022

METAR for:KDLZ (Delaware Muni, OH, US)
Text:KDLZ 100315Z AUTO 05007KT 10SM OVC026 03/01 A3015 RMK AO2
Temperature: 3.0°C ( 37°F)
Dewpoint: 1.0°C ( 34°F) [RH = 87%]
Pressure (altimeter):30.15 inches Hg (1021.1 mb)
Winds:from the NE (50 degrees) at 8 MPH (7 knots; 3.6 m/s)
Visibility:10 or more sm (16+ km)
Ceiling:2600 feet AGL
Clouds: overcast cloud deck at 2600 feet AGL
QC Flag:automated observation with no human augmentation